createdAt,value
2023-05-09T00:01:24.699Z,15.45
2023-05-09T00:03:52.203Z,15.39
2023-05-09T00:06:19.750Z,15.39
2023-05-09T00:08:46.736Z,15.36
2023-05-09T00:11:13.762Z,15.34
2023-05-09T00:13:41.938Z,15.26
2023-05-09T00:16:09.333Z,15.27
2023-05-09T00:18:37.544Z,15.31
2023-05-09T00:21:04.693Z,15.28
2023-05-09T00:23:31.517Z,15.28
2023-05-09T00:25:59.585Z,15.34
2023-05-09T00:28:26.730Z,15.34
2023-05-09T00:30:53.994Z,15.38
2023-05-09T00:33:21.312Z,15.38
2023-05-09T00:35:48.233Z,15.36
2023-05-09T00:38:14.988Z,15.30
2023-05-09T00:40:41.890Z,15.24
2023-05-09T00:43:08.787Z,15.25
2023-05-09T00:45:35.847Z,15.25
2023-05-09T00:48:03.503Z,15.23
2023-05-09T00:50:31.572Z,15.15
2023-05-09T00:52:59.247Z,15.09
2023-05-09T00:55:27.295Z,15.09
2023-05-09T00:57:54.153Z,15.07
2023-05-09T01:00:21.585Z,15.14
2023-05-09T01:02:56.271Z,15.18
2023-05-09T01:05:33.705Z,15.19
2023-05-09T01:08:10.653Z,15.17
2023-05-09T01:11:04.047Z,15.16
2023-05-09T01:14:06.675Z,15.17
2023-05-09T01:17:13.002Z,15.15
2023-05-09T01:20:16.754Z,15.13
2023-05-09T01:22:52.631Z,15.12
2023-05-09T01:25:49.211Z,15.05
2023-05-09T01:28:43.276Z,14.99
2023-05-09T01:31:10.285Z,14.94
2023-05-09T01:33:42.638Z,14.93
2023-05-09T01:36:16.234Z,14.90
2023-05-09T01:38:45.315Z,14.91
2023-05-09T01:41:16.879Z,14.91
2023-05-09T01:43:48.942Z,14.93
2023-05-09T01:46:19.458Z,14.92
2023-05-09T01:48:47.634Z,14.89
2023-05-09T01:51:16.975Z,14.91
2023-05-09T01:53:46.683Z,14.89
2023-05-09T01:56:14.953Z,14.90
2023-05-09T01:58:44.035Z,14.84
2023-05-09T02:01:11.964Z,14.79
2023-05-09T02:03:40.400Z,14.76
2023-05-09T02:06:08.762Z,14.76
2023-05-09T02:08:36.172Z,14.74
2023-05-09T02:11:03.242Z,14.70
2023-05-09T02:13:30.046Z,14.72
2023-05-09T02:15:57.655Z,14.65
2023-05-09T02:18:24.455Z,14.69
2023-05-09T02:20:51.373Z,14.71
2023-05-09T02:23:18.671Z,14.72
2023-05-09T02:25:46.805Z,14.69
2023-05-09T02:28:14.712Z,14.65
2023-05-09T02:30:46.777Z,14.62
2023-05-09T02:33:14.401Z,14.61
2023-05-09T02:35:46.475Z,14.61
2023-05-09T02:38:14.716Z,14.61
2023-05-09T02:40:44.391Z,14.65
2023-05-09T02:43:11.638Z,14.63
2023-05-09T02:45:38.644Z,14.65
2023-05-09T02:48:08.534Z,14.66
2023-05-09T02:50:38.285Z,14.65
2023-05-09T02:53:06.204Z,14.67
2023-05-09T02:55:33.152Z,14.70
2023-05-09T02:58:12.814Z,14.66
2023-05-09T03:00:43.412Z,14.58
2023-05-09T03:03:12.042Z,14.52
2023-05-09T03:05:39.222Z,14.49
2023-05-09T03:08:06.196Z,14.48
2023-05-09T03:10:34.634Z,14.49
2023-05-09T03:13:01.913Z,14.47
2023-05-09T03:15:28.783Z,14.41
2023-05-09T03:17:58.036Z,14.37
2023-05-09T03:20:27.325Z,14.34
2023-05-09T03:22:54.230Z,14.30
2023-05-09T03:25:21.403Z,14.25
2023-05-09T03:27:48.356Z,14.19
2023-05-09T03:30:16.145Z,14.18
2023-05-09T03:32:44.926Z,14.22
2023-05-09T03:35:11.876Z,14.19
2023-05-09T03:37:38.717Z,14.20
2023-05-09T03:40:08.935Z,14.25
2023-05-09T03:42:42.436Z,14.22
2023-05-09T03:45:10.599Z,14.18
2023-05-09T03:47:37.556Z,14.15
2023-05-09T03:50:06.369Z,14.16
2023-05-09T03:52:33.893Z,14.18
2023-05-09T03:55:01.081Z,14.20
2023-05-09T03:57:29.983Z,14.15
2023-05-09T03:59:57.895Z,14.14
2023-05-09T04:02:25.799Z,14.10
2023-05-09T04:04:53.108Z,14.13
2023-05-09T04:07:22.392Z,14.15
2023-05-09T04:09:49.616Z,14.16
2023-05-09T04:12:16.622Z,14.12
2023-05-09T04:14:46.148Z,14.16
2023-05-09T04:17:15.027Z,14.14
2023-05-09T04:19:42.141Z,14.13
2023-05-09T04:22:09.546Z,14.16
2023-05-09T04:24:36.476Z,14.14
2023-05-09T04:27:03.443Z,14.08
2023-05-09T04:29:30.568Z,14.05
2023-05-09T04:31:59.362Z,14.09
2023-05-09T04:34:27.720Z,14.09
2023-05-09T04:36:56.042Z,14.08
2023-05-09T04:39:23.467Z,14.09
2023-05-09T04:41:59.641Z,14.06
2023-05-09T04:44:26.766Z,14.02
2023-05-09T04:46:55.150Z,14.08
2023-05-09T04:49:22.020Z,14.10
2023-05-09T04:51:48.895Z,14.12
2023-05-09T04:54:15.730Z,14.13
2023-05-09T04:56:43.365Z,14.20
2023-05-09T04:59:10.577Z,14.23
2023-05-09T05:01:37.485Z,14.28
2023-05-09T05:04:04.958Z,14.35
2023-05-09T05:06:33.007Z,14.43
2023-05-09T05:09:00.459Z,14.49
2023-05-09T05:11:27.724Z,14.60
2023-05-09T05:13:55.103Z,14.66
2023-05-09T05:16:22.470Z,14.71
2023-05-09T05:18:49.479Z,14.80
2023-05-09T05:21:17.620Z,14.85
2023-05-09T05:23:45.939Z,14.87
2023-05-09T05:26:14.232Z,14.89
2023-05-09T05:28:41.185Z,14.95
2023-05-09T05:31:08.018Z,14.97
2023-05-09T05:33:34.894Z,15.02
2023-05-09T05:36:02.972Z,15.05
2023-05-09T05:38:30.320Z,15.08
2023-05-09T05:40:58.884Z,15.07
2023-05-09T05:43:27.930Z,15.09
2023-05-09T05:45:55.800Z,15.14
2023-05-09T05:48:24.139Z,15.17
2023-05-09T05:50:52.769Z,15.20
2023-05-09T05:53:23.086Z,15.23
2023-05-09T05:55:50.914Z,15.27
2023-05-09T05:58:17.912Z,15.35
2023-05-09T06:00:45.787Z,15.40
2023-05-09T06:03:14.395Z,15.53
2023-05-09T06:05:48.294Z,15.58
2023-05-09T06:08:15.427Z,15.63
2023-05-09T06:10:42.269Z,15.75
2023-05-09T06:13:09.162Z,15.85
2023-05-09T06:15:39.348Z,15.97
2023-05-09T06:18:06.330Z,16.19
2023-05-09T06:20:33.265Z,16.37
2023-05-09T06:23:00.122Z,16.51
2023-05-09T06:25:26.998Z,16.66
2023-05-09T06:27:53.796Z,16.72
2023-05-09T06:32:50.507Z,16.94
2023-05-09T06:35:17.397Z,16.93
2023-05-09T06:37:45.148Z,16.85
2023-05-09T06:40:13.430Z,16.81
2023-05-09T06:42:40.329Z,16.76
2023-05-09T06:45:07.747Z,16.70
2023-05-09T06:47:34.593Z,16.63
2023-05-09T06:50:01.432Z,16.59
2023-05-09T06:52:28.354Z,16.55
2023-05-09T06:54:55.326Z,16.57
2023-05-09T06:57:22.212Z,16.61
2023-05-09T06:59:49.045Z,16.63
2023-05-09T07:02:16.010Z,16.57
2023-05-09T07:04:43.149Z,16.63
2023-05-09T07:07:10.045Z,16.64
2023-05-09T07:09:36.903Z,16.66
2023-05-09T07:12:06.651Z,16.69
2023-05-09T07:14:33.466Z,16.71
2023-05-09T07:17:18.104Z,16.75
2023-05-09T07:19:47.180Z,16.83
2023-05-09T07:22:14.066Z,16.98
2023-05-09T07:24:46.579Z,17.02
2023-05-09T07:27:14.062Z,16.96
2023-05-09T07:29:40.929Z,16.97
2023-05-09T07:32:07.891Z,16.99
2023-05-09T07:34:36.175Z,16.94
2023-05-09T07:37:02.990Z,16.92
2023-05-09T07:39:29.830Z,16.95
2023-05-09T07:41:56.662Z,16.90
2023-05-09T07:44:23.758Z,16.90
2023-05-09T07:46:50.622Z,16.90
2023-05-09T07:49:17.477Z,16.88
2023-05-09T07:51:44.281Z,16.84
2023-05-09T07:54:13.977Z,16.83
2023-05-09T07:56:40.794Z,16.83
2023-05-09T07:59:07.637Z,16.82
2023-05-09T08:01:34.549Z,16.83
2023-05-09T08:04:01.401Z,16.78
2023-05-09T08:06:28.527Z,16.71
2023-05-09T08:08:55.388Z,16.64
2023-05-09T08:11:22.725Z,16.60
2023-05-09T08:13:50.350Z,16.60
2023-05-09T08:16:17.624Z,16.55
2023-05-09T08:18:45.517Z,16.51
2023-05-09T08:21:12.573Z,16.54
2023-05-09T08:23:40.663Z,16.54
2023-05-09T08:26:07.522Z,16.59
2023-05-09T08:28:34.324Z,16.66
2023-05-09T08:31:01.275Z,16.67
2023-05-09T08:33:28.196Z,16.70
2023-05-09T08:35:56.317Z,16.73
2023-05-09T08:38:24.365Z,16.75
2023-05-09T08:40:59.576Z,16.69
2023-05-09T08:43:29.277Z,16.60
2023-05-09T08:46:03.554Z,16.58
2023-05-09T08:48:35.949Z,16.58
2023-05-09T08:51:06.940Z,16.58
2023-05-09T08:53:34.650Z,16.58
2023-05-09T08:56:03.604Z,16.58
2023-05-09T08:58:31.874Z,16.52
2023-05-09T09:01:00.182Z,16.37
2023-05-09T09:03:29.088Z,16.11
2023-05-09T09:05:57.653Z,15.91
2023-05-09T09:08:27.593Z,15.75
2023-05-09T09:10:54.819Z,15.69
2023-05-09T09:13:25.721Z,15.62
2023-05-09T09:15:54.520Z,15.56
2023-05-09T09:18:29.408Z,15.52
2023-05-09T09:21:17.241Z,15.45
2023-05-09T09:23:47.481Z,15.44
2023-05-09T09:26:15.239Z,15.46
2023-05-09T09:28:43.164Z,15.52
2023-05-09T09:31:20.835Z,15.53
2023-05-09T09:33:49.340Z,15.51
2023-05-09T09:36:16.258Z,15.52
2023-05-09T09:38:44.865Z,15.57
2023-05-09T09:41:13.501Z,15.62
2023-05-09T09:43:46.262Z,15.62
2023-05-09T09:46:16.438Z,15.56
2023-05-09T09:48:51.160Z,15.53
2023-05-09T09:51:18.746Z,15.47
2023-05-09T09:53:45.575Z,15.38
2023-05-09T09:56:13.324Z,15.30
2023-05-09T09:58:41.363Z,15.24
2023-05-09T10:01:14.152Z,15.18
2023-05-09T10:03:44.218Z,15.09
2023-05-09T10:06:16.527Z,15.00
2023-05-09T10:08:49.151Z,14.93
2023-05-09T10:11:16.511Z,14.85
2023-05-09T10:13:46.673Z,14.63
2023-05-09T10:16:14.474Z,14.44
2023-05-09T10:18:43.026Z,14.30
2023-05-09T10:21:15.403Z,14.19
2023-05-09T10:23:47.104Z,14.12
2023-05-09T10:26:23.018Z,14.08
2023-05-09T10:28:57.107Z,14.08
2023-05-09T10:31:30.976Z,14.07
2023-05-09T10:34:08.701Z,14.04
2023-05-09T10:36:36.578Z,14.04
2023-05-09T10:39:07.883Z,14.09
2023-05-09T10:41:36.995Z,14.08
2023-05-09T10:44:04.333Z,14.13
2023-05-09T10:46:32.853Z,14.10
2023-05-09T10:49:00.296Z,14.10
2023-05-09T10:51:27.714Z,14.09
2023-05-09T10:53:56.169Z,14.10
2023-05-09T10:56:30.679Z,14.14
2023-05-09T10:59:00.175Z,14.18
2023-05-09T11:01:37.219Z,14.16
2023-05-09T11:04:16.568Z,14.09
2023-05-09T11:06:53.933Z,14.08
2023-05-09T11:09:39.993Z,14.05
2023-05-09T11:12:15.560Z,14.05
2023-05-09T11:14:46.609Z,14.06
2023-05-09T11:17:22.632Z,14.00
2023-05-09T11:19:49.487Z,14.02
2023-05-09T11:22:28.245Z,14.01
2023-05-09T11:25:15.291Z,13.95
2023-05-09T11:27:44.749Z,13.95
2023-05-09T11:30:18.795Z,13.88
2023-05-09T11:32:55.575Z,13.92
2023-05-09T11:35:24.291Z,13.88
2023-05-09T11:38:01.167Z,13.81
2023-05-09T11:40:30.029Z,13.85
2023-05-09T11:42:59.114Z,13.83
2023-05-09T11:45:31.570Z,13.90
2023-05-09T11:48:00.567Z,13.91
2023-05-09T11:50:27.485Z,13.86
2023-05-09T11:52:54.637Z,13.85
2023-05-09T11:55:22.940Z,13.89
2023-05-09T11:57:53.555Z,13.98
2023-05-09T12:00:23.922Z,14.00
2023-05-09T12:02:52.815Z,14.04
2023-05-09T12:05:22.844Z,14.08
2023-05-09T12:07:50.244Z,14.08
2023-05-09T12:10:21.952Z,14.07
2023-05-09T12:12:52.353Z,14.06
2023-05-09T12:15:21.305Z,14.10
2023-05-09T12:18:02.809Z,14.11
2023-05-09T12:20:41.471Z,14.17
2023-05-09T12:23:11.608Z,14.16
2023-05-09T12:25:38.561Z,14.18
2023-05-09T12:28:05.939Z,14.17
2023-05-09T12:30:33.035Z,14.18
2023-05-09T12:33:00.245Z,14.20
2023-05-09T12:35:27.105Z,14.25
2023-05-09T12:37:59.077Z,14.27
2023-05-09T12:40:26.195Z,14.27
2023-05-09T12:42:59.945Z,14.24
2023-05-09T12:45:27.571Z,14.23
2023-05-09T12:47:54.576Z,14.24
2023-05-09T12:50:21.785Z,14.25
2023-05-09T12:53:02.595Z,14.22
2023-05-09T12:55:32.757Z,14.19
2023-05-09T12:58:03.764Z,14.14
2023-05-09T13:00:45.928Z,14.11
2023-05-09T13:03:31.328Z,14.07
2023-05-09T13:06:02.169Z,13.99
2023-05-09T13:08:30.239Z,13.94
2023-05-09T13:11:11.869Z,13.87
2023-05-09T13:13:42.447Z,13.85
2023-05-09T13:16:11.245Z,13.88
2023-05-09T13:18:39.804Z,13.86
2023-05-09T13:21:06.683Z,13.82
2023-05-09T13:23:33.486Z,13.80
2023-05-09T13:26:00.499Z,13.79
2023-05-09T13:28:27.356Z,13.78
2023-05-09T13:30:54.208Z,13.78
2023-05-09T13:35:51.359Z,13.85
2023-05-09T13:38:18.173Z,13.80
2023-05-09T13:40:44.995Z,13.84
2023-05-09T13:43:11.998Z,13.83
2023-05-09T13:45:38.862Z,13.81
2023-05-09T13:48:06.024Z,13.83
2023-05-09T13:50:32.851Z,13.85
2023-05-09T13:52:59.736Z,13.81
2023-05-09T13:55:27.677Z,13.83
2023-05-09T13:57:54.862Z,13.84
2023-05-09T14:00:22.326Z,13.86
2023-05-09T14:02:49.157Z,13.86
2023-05-09T14:05:16.873Z,13.86
2023-05-09T14:07:44.104Z,13.89
2023-05-09T14:10:12.555Z,13.93
2023-05-09T14:12:40.763Z,13.94
2023-05-09T14:15:08.607Z,13.94
2023-05-09T14:17:35.576Z,13.97
2023-05-09T14:20:02.415Z,14.03
2023-05-09T14:22:29.278Z,14.07
2023-05-09T14:24:57.421Z,14.10
2023-05-09T14:27:25.159Z,14.11
2023-05-09T14:29:52.356Z,14.10
2023-05-09T14:32:19.156Z,14.09
2023-05-09T14:34:45.989Z,14.09
2023-05-09T14:37:15.609Z,14.10
2023-05-09T14:39:45.292Z,14.10
2023-05-09T14:42:14.111Z,14.08
2023-05-09T14:44:41.863Z,14.06
2023-05-09T14:47:09.998Z,14.07
2023-05-09T14:49:39.809Z,14.06
2023-05-09T14:52:06.721Z,14.10
2023-05-09T14:54:33.652Z,14.10
2023-05-09T14:57:02.039Z,14.11
2023-05-09T14:59:29.663Z,14.10
2023-05-09T15:01:56.459Z,14.11
2023-05-09T15:04:28.158Z,14.10
2023-05-09T15:06:55.121Z,14.12
2023-05-09T15:09:22.525Z,14.12
2023-05-09T15:11:49.516Z,14.16
2023-05-09T15:14:16.913Z,14.20
2023-05-09T15:16:44.379Z,14.22
2023-05-09T15:19:11.489Z,14.18
2023-05-09T15:21:38.384Z,14.15
2023-05-09T15:24:05.822Z,14.17
2023-05-09T15:26:32.756Z,14.15
2023-05-09T15:28:59.602Z,14.14
2023-05-09T15:31:26.693Z,14.11
2023-05-09T15:33:53.669Z,14.08
2023-05-09T15:36:20.488Z,14.03
2023-05-09T15:38:49.654Z,14.05
2023-05-09T15:41:16.909Z,14.05
2023-05-09T15:43:43.880Z,14.09
2023-05-09T15:46:10.979Z,14.11
2023-05-09T15:48:37.987Z,14.10
2023-05-09T15:51:05.268Z,14.12
2023-05-09T15:53:32.152Z,14.10
2023-05-09T15:55:59.431Z,14.13
2023-05-09T15:58:26.260Z,14.13
2023-05-09T16:00:53.253Z,14.13
2023-05-09T16:03:20.286Z,14.14
2023-05-09T16:05:47.284Z,14.15
2023-05-09T16:08:14.484Z,14.14
2023-05-09T16:10:41.332Z,14.12
2023-05-09T16:13:08.667Z,14.14
2023-05-09T16:15:35.773Z,14.12
2023-05-09T16:18:02.946Z,14.16
2023-05-09T16:20:29.740Z,14.16
2023-05-09T16:22:56.688Z,14.16
2023-05-09T16:25:23.468Z,14.16
2023-05-09T16:27:50.336Z,14.13
2023-05-09T16:30:17.459Z,14.12
2023-05-09T16:32:44.789Z,14.12
2023-05-09T16:35:11.730Z,14.13
2023-05-09T16:37:38.584Z,14.11
2023-05-09T16:40:06.439Z,14.10
2023-05-09T16:42:33.325Z,14.10
2023-05-09T16:45:00.133Z,14.14
2023-05-09T16:47:27.083Z,14.14
2023-05-09T16:49:55.409Z,14.17
2023-05-09T16:52:24.372Z,14.21
2023-05-09T16:54:54.603Z,14.18
2023-05-09T16:57:21.474Z,14.17
2023-05-09T16:59:48.299Z,14.17
2023-05-09T17:02:15.069Z,14.16
2023-05-09T17:04:42.386Z,14.16
2023-05-09T17:07:09.282Z,14.15
2023-05-09T17:09:36.165Z,14.16
2023-05-09T17:12:03.516Z,14.16
2023-05-09T17:14:30.444Z,14.12
2023-05-09T17:16:57.390Z,14.07
2023-05-09T17:19:24.258Z,14.02
2023-05-09T17:21:51.124Z,13.94
2023-05-09T17:24:17.906Z,13.89
2023-05-09T17:26:44.694Z,13.86
2023-05-09T17:29:11.504Z,13.86
2023-05-09T17:31:38.403Z,13.84
2023-05-09T17:34:05.721Z,13.82
2023-05-09T17:36:33.595Z,13.82
2023-05-09T17:39:00.868Z,13.80
2023-05-09T17:41:27.875Z,13.79
2023-05-09T17:43:57.377Z,13.77
2023-05-09T17:46:24.887Z,13.75
2023-05-09T17:48:51.891Z,13.73
2023-05-09T17:51:18.810Z,13.70
2023-05-09T17:53:46.783Z,13.71
2023-05-09T17:56:13.659Z,13.69
2023-05-09T17:58:40.562Z,13.68
2023-05-09T18:01:07.608Z,13.69
2023-05-09T18:03:34.772Z,13.64
2023-05-09T18:06:01.958Z,13.64
2023-05-09T18:08:29.864Z,13.62
2023-05-09T18:10:57.787Z,13.60
2023-05-09T18:13:24.818Z,13.57
2023-05-09T18:15:53.973Z,13.56
2023-05-09T18:18:20.986Z,13.54
2023-05-09T18:20:47.906Z,13.48
2023-05-09T18:23:15.526Z,13.45
2023-05-09T18:25:42.353Z,13.41
2023-05-09T18:28:09.589Z,13.39
2023-05-09T18:30:37.003Z,13.35
2023-05-09T18:33:03.993Z,13.35
2023-05-09T18:35:31.630Z,13.32
2023-05-09T18:37:58.426Z,13.32
2023-05-09T18:40:25.263Z,13.33
2023-05-09T18:42:52.043Z,13.33
2023-05-09T18:45:18.886Z,13.33
2023-05-09T18:47:45.726Z,13.33
2023-05-09T18:50:13.687Z,13.33
2023-05-09T18:52:40.782Z,13.30
2023-05-09T18:55:08.258Z,13.29
2023-05-09T18:57:35.074Z,13.28
2023-05-09T19:00:03.569Z,13.27
2023-05-09T19:02:30.366Z,13.27
2023-05-09T19:04:57.635Z,13.24
2023-05-09T19:07:24.443Z,13.22
2023-05-09T19:09:51.506Z,13.21
2023-05-09T19:12:19.271Z,13.19
2023-05-09T19:14:46.210Z,13.18
2023-05-09T19:17:13.007Z,13.15
2023-05-09T19:19:39.861Z,13.14
2023-05-09T19:22:06.951Z,13.13
2023-05-09T19:24:33.860Z,13.16
2023-05-09T19:27:00.829Z,13.15
2023-05-09T19:29:28.154Z,13.18
2023-05-09T19:31:55.815Z,13.20
2023-05-09T19:34:22.897Z,13.17
2023-05-09T19:36:49.872Z,13.17
2023-05-09T19:39:17.016Z,13.17
2023-05-09T19:41:44.916Z,13.20
2023-05-09T19:44:11.888Z,13.17
2023-05-09T19:46:42.944Z,13.12
2023-05-09T19:49:10.625Z,13.15
2023-05-09T19:51:37.877Z,13.15
2023-05-09T19:54:05.262Z,13.14
2023-05-09T19:56:32.069Z,13.14
2023-05-09T19:58:59.060Z,13.12
2023-05-09T20:01:26.254Z,13.13
2023-05-09T20:03:53.233Z,13.09
2023-05-09T20:06:20.164Z,13.05
2023-05-09T20:08:47.144Z,13.06
2023-05-09T20:11:14.802Z,13.08
2023-05-09T20:13:42.626Z,13.08
2023-05-09T20:16:09.641Z,13.09
2023-05-09T20:18:36.552Z,13.08
2023-05-09T20:21:04.063Z,13.10
2023-05-09T20:23:31.188Z,13.09
2023-05-09T20:25:58.200Z,13.10
2023-05-09T20:28:25.281Z,13.10
2023-05-09T20:30:52.148Z,13.14
2023-05-09T20:33:19.187Z,13.14
2023-05-09T20:35:46.065Z,13.15
2023-05-09T20:38:12.872Z,13.14
2023-05-09T20:40:40.404Z,13.13
2023-05-09T20:43:07.223Z,13.13
2023-05-09T20:45:34.506Z,13.13
2023-05-09T20:48:01.961Z,13.12
2023-05-09T20:50:28.801Z,13.09
2023-05-09T20:52:55.597Z,13.06
2023-05-09T20:55:22.743Z,13.03
2023-05-09T20:57:49.594Z,13.02
2023-05-09T21:00:16.870Z,12.99
2023-05-09T21:02:44.001Z,12.95
2023-05-09T21:05:10.947Z,12.92
2023-05-09T21:07:37.734Z,12.91
2023-05-09T21:10:05.293Z,12.89
2023-05-09T21:12:32.785Z,12.85
2023-05-09T21:14:59.596Z,12.83
2023-05-09T21:17:26.567Z,12.82
2023-05-09T21:19:53.378Z,12.82
2023-05-09T21:22:20.237Z,12.84
2023-05-09T21:24:47.156Z,12.81
2023-05-09T21:27:14.297Z,12.80
2023-05-09T21:29:41.151Z,12.79
2023-05-09T21:32:08.105Z,12.76
2023-05-09T21:34:34.930Z,12.77
2023-05-09T21:37:01.715Z,12.75
2023-05-09T21:39:28.482Z,12.71
2023-05-09T21:41:55.262Z,12.71
2023-05-09T21:44:22.119Z,12.71
2023-05-09T21:46:49.044Z,12.68
2023-05-09T21:49:20.968Z,12.67
2023-05-09T21:51:48.531Z,12.64
2023-05-09T21:54:15.346Z,12.64
2023-05-09T21:56:42.651Z,12.62
2023-05-09T21:59:09.752Z,12.63
2023-05-09T22:01:36.887Z,12.62
2023-05-09T22:04:03.932Z,12.60
2023-05-09T22:06:31.604Z,12.58
2023-05-09T22:08:58.606Z,12.58
2023-05-09T22:11:25.385Z,12.59
2023-05-09T22:13:52.165Z,12.59
2023-05-09T22:16:19.140Z,12.60
2023-05-09T22:18:45.911Z,12.59
2023-05-09T22:21:12.747Z,12.62
2023-05-09T22:23:39.530Z,12.65
2023-05-09T22:26:06.439Z,12.66
2023-05-09T22:28:33.213Z,12.67
2023-05-09T22:31:00.066Z,12.68
2023-05-09T22:33:26.823Z,12.67
2023-05-09T22:35:53.839Z,12.67
2023-05-09T22:38:20.610Z,12.66
2023-05-09T22:40:47.448Z,12.66
2023-05-09T22:43:14.325Z,12.64
2023-05-09T22:45:41.133Z,12.64
2023-05-09T22:48:08.246Z,12.61
2023-05-09T22:50:35.251Z,12.59
2023-05-09T22:53:02.387Z,12.58
2023-05-09T22:55:29.253Z,12.56
2023-05-09T22:57:56.085Z,12.57
2023-05-09T23:00:23.052Z,12.58
2023-05-09T23:02:49.943Z,12.57
2023-05-09T23:05:17.028Z,12.62
2023-05-09T23:07:44.447Z,12.62
2023-05-09T23:10:11.539Z,12.62
2023-05-09T23:12:38.379Z,12.59
2023-05-09T23:15:07.417Z,12.59
2023-05-09T23:17:34.462Z,12.59
2023-05-09T23:20:01.617Z,12.57
2023-05-09T23:22:28.537Z,12.55
2023-05-09T23:24:55.524Z,12.55
2023-05-09T23:27:22.648Z,12.55
2023-05-09T23:29:49.551Z,12.54
2023-05-09T23:32:16.373Z,12.55
2023-05-09T23:34:43.120Z,12.54
2023-05-09T23:37:09.904Z,12.53
2023-05-09T23:39:36.679Z,12.54
2023-05-09T23:42:04.137Z,12.57
2023-05-09T23:44:31.335Z,12.58
2023-05-09T23:46:58.460Z,12.58
2023-05-09T23:49:25.409Z,12.59
2023-05-09T23:51:52.378Z,12.61
2023-05-09T23:54:21.380Z,12.63
2023-05-09T23:56:48.662Z,12.62
2023-05-09T23:59:15.506Z,12.62
